4XCGH LLHZ-LLHZ

Flight info

Callsign 4XCGH
Flight time 0h 5m
Altitude 2500
Route CVFR
Aircraft C172/L-VD/A

Departure

Time 2026-05-05 17:50
Airport Herzliya Airport (LLHZ)

Arrival

Time 2026-05-05 17:55
Airport Herzliya Airport (LLHZ)
Time Latitude Longitude Altitude Speed Heading
2026-05-05 17:45 32.17881 34.83779 118 ft 0 kts 110°
2026-05-05 17:47 32.17890 34.83803 117 ft 8 kts 83°
2026-05-05 17:48 32.17920 34.83822 122 ft 14 kts 309°
2026-05-05 17:48 32.17983 34.83627 111 ft 50 kts 288°
2026-05-05 17:49 32.18071 34.83402 146 ft 58 kts 287°
2026-05-05 17:49 32.18302 34.82950 331 ft 68 kts 322°
2026-05-05 17:50 32.18888 34.83033 487 ft 95 kts 10°
2026-05-05 17:50 32.19538 34.83280 685 ft 101 kts
2026-05-05 17:50 32.20201 34.83543 959 ft 97 kts 10°
2026-05-05 17:50 32.20841 34.83766 1214 ft 96 kts
2026-05-05 17:51 32.21470 34.84038 1463 ft 96 kts 11°
2026-05-05 17:51 32.22064 34.84383 1705 ft 97 kts 19°
2026-05-05 17:51 32.22671 34.84773 1904 ft 99 kts 19°
2026-05-05 17:51 32.23249 34.85142 2167 ft 91 kts 12°
2026-05-05 17:52 32.23878 34.85402 2259 ft 104 kts
2026-05-05 17:52 32.24583 34.85773 2422 ft 117 kts 37°
2026-05-05 17:52 32.24821 34.86664 2534 ft 124 kts 111°
2026-05-05 17:52 32.24201 34.87255 2464 ft 119 kts 179°
2026-05-05 17:53 32.23349 34.87236 2274 ft 124 kts 198°
2026-05-05 17:53 32.22553 34.86996 1931 ft 107 kts 210°
2026-05-05 17:53 32.21856 34.86678 1694 ft 113 kts 212°
2026-05-05 17:53 32.21161 34.86224 1337 ft 118 kts 217°
2026-05-05 17:54 32.20517 34.85774 1067 ft 96 kts 223°
2026-05-05 17:54 32.19949 34.85404 987 ft 95 kts 216°
2026-05-05 17:54 32.19348 34.84943 758 ft 105 kts 221°
2026-05-05 17:54 32.18726 34.84503 555 ft 98 kts 204°
2026-05-05 17:55 32.18133 34.84422 371 ft 74 kts 205°
2026-05-05 17:55 32.17864 34.84057 200 ft 62 kts 272°
2026-05-05 17:55 32.18004 34.83574 110 ft 49 kts 286°
2026-05-05 17:55 32.18070 34.83315 100 ft 20 kts 290°
2026-05-05 17:56 32.18103 34.83212 98 ft 9 kts 289°